Decoded Metar for KPBH (PHILLIPS/PRICE in WI, USA) (IATA:PBH) | Meteo·Mobile Aviation Weather
aviador You're here:

KPBH Decoded Metar

PHILLIPS/PRICE in WI, USA
Report Time2018-12-16 03:55:00
UTC Time2018-12-16 04:02:02
Flight Rules vfr VFR
Wind180° at 08 kt
W.Decomp.*RWY 19: 7.9 kt HW 1.4 kt LCW
RWY 24: 4.0 kt HW 6.9 kt LCW
W.Rank180° ranks 4
Current wind is above 180° avg. (7.2)
Visibility9999 m
Phenomena:N/A
Clouds:N/A
Expected CloudBase > 2,400 ft AGL from Temp-Dew spread
CeilingNone
Temp01°C (ISA -11)
Dew Point-5°C (65% RH)
AAT-4.5°C
QNH1017 hPa
Density Alt56 ft
Elevation1,473 ft
Report Wrong Elevation
Raw Report
KPBH 160355Z AUTO 18008KT 10SM CLR 01/M05 A3002 RMK AO2
T00081050=

Extra information for KPBH:More info

Metar Taf Metar & Taf Last 4 Metars F.Rules Stats Wind Profile Meteogram Temp Stats Airport Information Weather charts Add Link Nearby VenuesMetar ALERT Operation Metar Decoded Social comments

AIRNAV info for KPBH